Time;durP1;ratioP1;P1;durP2;ratioP2;P2;SDS_P1;SDS_P2;PMS_P1;PMS_P2;Temp;Humidity;BMP_temperature;BMP_pressure;BME280_temperature;BME280_humidity;BME280_pressure;Samples;Min_cycle;Max_cycle;Signal;HPM_P1;HPM_P2
2023/02/20 00:01:24;;;;;;;4.72;2.22;;;8.50;99.90;;;;;;6218971;23;20035;-92
2023/02/20 00:03:50;;;;;;;4.65;1.80;;;8.50;99.90;;;;;;6246653;23;20008;-89
2023/02/20 00:06:16;;;;;;;4.60;1.80;;;8.50;99.90;;;;;;6219063;23;20016;-90
2023/02/20 00:08:41;;;;;;;5.00;1.58;;;8.50;99.90;;;;;;6246580;23;20008;-91
2023/02/20 00:11:07;;;;;;;3.55;1.80;;;8.50;99.90;;;;;;6220794;23;20016;-89
2023/02/20 00:13:33;;;;;;;5.32;1.38;;;8.60;99.90;;;;;;6249983;23;20008;-89
2023/02/20 00:15:58;;;;;;;2.83;1.45;;;8.50;99.90;;;;;;6240856;23;20011;-91
2023/02/20 00:18:24;;;;;;;2.40;1.23;;;8.50;99.90;;;;;;6239976;23;20012;-90
2023/02/20 00:20:50;;;;;;;2.55;1.40;;;8.60;99.90;;;;;;6265383;23;20016;-91
2023/02/20 00:23:16;;;;;;;2.45;1.50;;;8.60;99.90;;;;;;6221316;23;20004;-90
2023/02/20 00:25:41;;;;;;;4.40;1.23;;;8.60;99.90;;;;;;6220042;23;20050;-91
2023/02/20 00:28:07;;;;;;;3.95;1.67;;;8.60;99.90;;;;;;6219432;23;20012;-89
2023/02/20 00:30:33;;;;;;;2.45;1.40;;;8.60;99.90;;;;;;6219808;23;20008;-90
2023/02/20 00:32:58;;;;;;;3.25;1.10;;;8.60;99.90;;;;;;6245874;23;20519;-87
2023/02/20 00:35:25;;;;;;;5.22;1.58;;;8.60;99.90;;;;;;6245960;23;20008;-89
2023/02/20 00:37:52;;;;;;;2.50;1.27;;;8.60;99.90;;;;;;6245680;23;20011;-89
2023/02/20 00:40:19;;;;;;;4.35;1.70;;;8.60;99.90;;;;;;6219028;23;20107;-88
2023/02/20 00:42:45;;;;;;;2.75;1.20;;;8.60;99.90;;;;;;6219526;23;19996;-90
2023/02/20 00:45:11;;;;;;;1.20;1.10;;;8.60;99.90;;;;;;6218750;23;20016;-88
2023/02/20 00:47:38;;;;;;;6.80;1.73;;;8.60;99.90;;;;;;6219469;23;20024;-90
2023/02/20 00:50:05;;;;;;;9.77;2.42;;;8.60;99.90;;;;;;6219212;23;20008;-89
2023/02/20 00:52:31;;;;;;;5.05;1.90;;;8.60;99.90;;;;;;6219278;23;20091;-89
2023/02/20 00:54:56;;;;;;;4.28;2.28;;;8.60;99.90;;;;;;6244737;23;20011;-89
2023/02/20 00:57:22;;;;;;;5.05;1.70;;;8.60;99.90;;;;;;6244990;23;20034;-90
2023/02/20 00:59:48;;;;;;;3.85;1.65;;;8.60;99.90;;;;;;6218113;23;20008;-90
2023/02/20 01:02:14;;;;;;;5.43;2.00;;;8.70;99.90;;;;;;6246368;23;20103;-91
2023/02/20 01:04:40;;;;;;;3.22;1.58;;;8.70;99.90;;;;;;6248007;23;20000;-89
2023/02/20 01:07:06;;;;;;;1.05;0.77;;;8.70;99.90;;;;;;6220379;23;20552;-89
2023/02/20 01:09:31;;;;;;;3.42;1.25;;;8.70;99.90;;;;;;6218465;23;20076;-89
2023/02/20 01:11:57;;;;;;;4.43;1.45;;;8.70;99.90;;;;;;6218873;23;20036;-89
2023/02/20 01:14:24;;;;;;;2.63;1.25;;;8.70;99.90;;;;;;6218752;23;20033;-89
2023/02/20 01:16:51;;;;;;;2.15;1.67;;;8.70;99.90;;;;;;6246500;23;20431;-90
2023/02/20 01:19:18;;;;;;;2.38;1.45;;;8.60;99.90;;;;;;6219718;23;20099;-89
2023/02/20 01:21:43;;;;;;;2.85;1.30;;;8.60;99.90;;;;;;6219536;23;20035;-88
2023/02/20 01:24:09;;;;;;;3.50;1.77;;;8.60;99.90;;;;;;6245658;23;20000;-90
2023/02/20 01:26:35;;;;;;;3.88;1.80;;;8.60;99.90;;;;;;6245769;23;20008;-88
2023/02/20 01:29:01;;;;;;;7.57;2.75;;;8.60;99.90;;;;;;6245744;23;20000;-91
2023/02/20 01:31:27;;;;;;;6.47;3.40;;;8.60;99.90;;;;;;6250922;23;20003;-89
2023/02/20 01:33:53;;;;;;;3.97;1.88;;;8.70;99.90;;;;;;6229229;23;20072;-89
2023/02/20 01:36:19;;;;;;;6.43;2.38;;;8.70;99.90;;;;;;6222416;23;20004;-89
2023/02/20 01:38:47;;;;;;;5.63;2.70;;;8.60;99.90;;;;;;6218830;23;20448;-89
2023/02/20 01:41:13;;;;;;;4.88;2.38;;;8.60;99.90;;;;;;6247856;23;20008;-90
2023/02/20 01:43:39;;;;;;;5.63;3.25;;;8.70;99.90;;;;;;6250414;23;20000;-90
2023/02/20 01:46:26;;;;;;;3.65;2.70;;;8.70;99.90;;;;;;6221030;23;20011;-89
2023/02/20 01:49:18;;;;;;;7.93;2.90;;;8.70;99.90;;;;;;6220798;23;20004;-90
2023/02/20 01:51:49;;;;;;;6.35;2.30;;;8.70;99.90;;;;;;6221385;23;20008;-91
2023/02/20 01:54:19;;;;;;;2.85;2.15;;;8.70;99.90;;;;;;6220978;23;20008;-90
2023/02/20 01:56:46;;;;;;;6.28;2.40;;;8.80;99.90;;;;;;6220230;23;20043;-90
2023/02/20 01:59:13;;;;;;;5.50;2.35;;;8.80;99.90;;;;;;6219958;23;20335;-89
2023/02/20 02:01:39;;;;;;;3.22;1.90;;;8.80;99.90;;;;;;6246478;23;20450;-90
2023/02/20 02:04:08;;;;;;;6.68;3.00;;;8.80;99.90;;;;;;6218870;23;20083;-91
2023/02/20 02:06:39;;;;;;;5.22;2.00;;;8.80;99.90;;;;;;6220608;23;20004;-90
2023/02/20 02:09:15;;;;;;;4.95;2.20;;;8.80;99.90;;;;;;6221746;23;20012;-90
2023/02/20 02:11:41;;;;;;;4.72;1.90;;;8.80;99.90;;;;;;6220483;23;20511;-89
2023/02/20 02:14:07;;;;;;;5.93;1.92;;;8.80;99.90;;;;;;6221086;23;20016;-91
2023/02/20 02:16:44;;;;;;;2.38;0.90;;;8.70;99.90;;;;;;6248252;23;19996;-90
2023/02/20 02:19:47;;;;;;;4.75;1.10;;;8.70;99.90;;;;;;6221406;23;20008;-91
2023/02/20 02:22:46;;;;;;;1.25;1.00;;;8.70;99.90;;;;;;6248791;23;20042;-89
2023/02/20 02:25:37;;;;;;;2.85;0.90;;;8.70;99.90;;;;;;6247469;23;20000;-88
2023/02/20 02:28:30;;;;;;;1.95;0.63;;;8.70;99.90;;;;;;6247004;23;20066;-89
2023/02/20 02:31:20;;;;;;;2.40;1.00;;;8.70;99.90;;;;;;6219710;23;20008;-89
2023/02/20 02:33:52;;;;;;;3.03;0.80;;;8.70;99.90;;;;;;6246513;23;20054;-90
2023/02/20 02:36:38;;;;;;;1.67;1.08;;;8.70;99.90;;;;;;6219744;23;20004;-89
2023/02/20 02:39:21;;;;;;;3.95;1.42;;;8.70;99.90;;;;;;6246741;23;20023;-88
2023/02/20 02:42:13;;;;;;;1.65;0.60;;;8.70;99.90;;;;;;6219599;23;20020;-92
2023/02/20 02:44:44;;;;;;;1.98;0.88;;;8.70;99.90;;;;;;6247106;23;20011;-90
2023/02/20 02:47:33;;;;;;;3.58;1.00;;;8.70;99.90;;;;;;6219565;23;20031;-90
2023/02/20 02:50:03;;;;;;;1.52;0.65;;;8.70;99.90;;;;;;6219842;23;20000;-89
2023/02/20 02:52:47;;;;;;;1.05;0.50;;;8.70;99.90;;;;;;6220189;23;20011;-89
2023/02/20 02:55:19;;;;;;;1.00;0.60;;;8.70;99.90;;;;;;6220240;23;20008;-91
2023/02/20 02:57:46;;;;;;;1.20;0.68;;;8.70;99.90;;;;;;6246460;23;20050;-87
2023/02/20 03:00:17;;;;;;;3.53;0.80;;;8.70;99.90;;;;;;6219808;23;20071;-90
2023/02/20 03:02:46;;;;;;;0.52;0.43;;;8.70;99.90;;;;;;6219727;23;20016;-90
2023/02/20 03:05:14;;;;;;;1.52;0.73;;;8.70;99.90;;;;;;6219592;23;20095;-90
2023/02/20 03:07:43;;;;;;;4.90;0.90;;;8.70;99.90;;;;;;6246265;23;20024;-90
2023/02/20 03:10:17;;;;;;;2.13;0.82;;;8.70;99.90;;;;;;6219833;23;20023;-90
2023/02/20 03:12:45;;;;;;;3.22;0.68;;;8.70;99.90;;;;;;6219336;23;20436;-89
2023/02/20 03:15:32;;;;;;;1.63;0.55;;;8.70;99.90;;;;;;6219198;23;20010;-90
2023/02/20 03:18:23;;;;;;;5.38;0.50;;;8.70;99.90;;;;;;6219655;23;20008;-90
2023/02/20 03:20:58;;;;;;;2.63;0.80;;;8.70;99.90;;;;;;6245788;23;20016;-90
2023/02/20 03:23:33;;;;;;;3.08;0.70;;;8.60;99.90;;;;;;6219327;23;20047;-90
2023/02/20 03:26:16;;;;;;;3.65;0.80;;;8.60;99.90;;;;;;6219472;23;20004;-89
2023/02/20 03:28:49;;;;;;;0.95;0.70;;;8.70;99.90;;;;;;6219470;23;20031;-88
2023/02/20 03:31:25;;;;;;;3.83;1.20;;;8.70;99.90;;;;;;6219373;23;20035;-89
2023/02/20 03:45:25;;;;;;;1.80;1.10;;;8.70;99.90;;;;;;6245890;23;20027;-89
2023/02/20 03:47:55;;;;;;;3.67;1.15;;;8.70;99.90;;;;;;6246914;23;20427;-89
2023/02/20 03:50:21;;;;;;;3.05;0.90;;;8.70;99.90;;;;;;6217546;23;20019;-90
2023/02/20 03:52:47;;;;;;;0.90;0.73;;;8.70;99.90;;;;;;6218889;23;20012;-89
2023/02/20 03:55:12;;;;;;;3.50;1.55;;;8.70;99.90;;;;;;6246925;23;20014;-89
2023/02/20 03:57:47;;;;;;;2.55;1.20;;;8.80;99.90;;;;;;6246282;23;19996;-88
2023/02/20 04:00:21;;;;;;;4.10;1.10;;;8.80;99.90;;;;;;6245056;23;19996;-89
2023/02/20 04:02:50;;;;;;;3.00;1.15;;;8.80;99.90;;;;;;6218964;23;20071;-90
2023/02/20 04:05:26;;;;;;;2.22;0.98;;;8.80;99.90;;;;;;6219567;23;20103;-89
2023/02/20 04:08:00;;;;;;;4.82;1.20;;;8.80;99.90;;;;;;6245086;23;20015;-89
2023/02/20 04:10:30;;;;;;;1.20;0.90;;;8.80;99.90;;;;;;6218454;23;20080;-90
2023/02/20 04:12:57;;;;;;;3.63;1.15;;;8.80;99.90;;;;;;6245686;23;20023;-89
2023/02/20 04:15:24;;;;;;;2.63;0.40;;;8.90;99.90;;;;;;6245161;23;20000;-89
2023/02/20 04:17:55;;;;;;;6.65;0.70;;;8.90;99.90;;;;;;6218509;23;20030;-90
2023/02/20 04:20:21;;;;;;;1.63;0.77;;;8.90;99.90;;;;;;6218958;23;20016;-90
2023/02/20 04:22:49;;;;;;;1.17;0.90;;;8.90;99.90;;;;;;6219164;23;20011;-90
2023/02/20 04:25:29;;;;;;;2.70;0.65;;;8.90;99.90;;;;;;6245054;23;20004;-91
2023/02/20 04:27:55;;;;;;;5.53;1.42;;;8.90;99.90;;;;;;6218969;23;20082;-89
2023/02/20 04:30:21;;;;;;;1.33;0.80;;;8.90;99.90;;;;;;6218487;23;20038;-90
2023/02/20 04:32:47;;;;;;;2.45;1.00;;;8.90;99.90;;;;;;6218185;23;20003;-91
2023/02/20 04:35:18;;;;;;;2.78;0.60;;;8.90;99.90;;;;;;6251554;23;20340;-90
2023/02/20 04:37:44;;;;;;;2.33;1.02;;;8.90;99.90;;;;;;6228790;23;20008;-90
2023/02/20 04:40:12;;;;;;;2.17;1.02;;;9.00;99.90;;;;;;6220654;23;20436;-89
2023/02/20 04:42:38;;;;;;;1.17;0.65;;;9.00;99.90;;;;;;6244817;23;20004;-89
2023/02/20 04:45:04;;;;;;;1.33;1.00;;;9.00;99.90;;;;;;6244693;23;20003;-89
2023/02/20 04:47:30;;;;;;;4.55;1.10;;;9.00;99.90;;;;;;6244708;23;20031;-90
2023/02/20 04:49:55;;;;;;;2.88;0.82;;;9.00;99.90;;;;;;6218600;23;20016;-88
2023/02/20 04:52:23;;;;;;;3.88;1.00;;;9.00;99.90;;;;;;6218516;23;20032;-90
2023/02/20 04:54:49;;;;;;;1.63;1.00;;;9.00;99.90;;;;;;6245351;23;20000;-90
2023/02/20 04:57:15;;;;;;;4.65;1.17;;;9.00;99.90;;;;;;6245189;23;20004;-91
2023/02/20 04:59:41;;;;;;;2.72;1.08;;;9.00;99.90;;;;;;6219258;23;20004;-90
2023/02/20 05:02:06;;;;;;;2.53;0.50;;;9.00;99.90;;;;;;6221982;23;20020;-89
2023/02/20 05:04:34;;;;;;;1.88;0.70;;;9.00;99.90;;;;;;6221836;23;20090;-91
2023/02/20 05:07:00;;;;;;;1.77;0.60;;;9.00;99.90;;;;;;6247831;23;20095;-90
2023/02/20 05:09:26;;;;;;;1.85;0.40;;;9.00;99.90;;;;;;6220811;23;20008;-90
2023/02/20 05:11:52;;;;;;;2.47;0.52;;;9.00;99.90;;;;;;6222029;23;20067;-89
2023/02/20 05:14:17;;;;;;;3.15;0.60;;;9.00;99.90;;;;;;6251365;23;20024;-90
2023/02/20 05:16:44;;;;;;;3.25;1.20;;;9.00;99.90;;;;;;6251555;23;20341;-89
2023/02/20 05:19:10;;;;;;;1.02;0.52;;;9.00;99.90;;;;;;6226999;23;20012;-90
2023/02/20 05:24:21;;;;;;;2.75;1.10;;;9.00;99.90;;;;;;6262991;23;20023;-87
2023/02/20 05:26:47;;;;;;;1.75;0.63;;;9.00;99.90;;;;;;6258727;23;20004;-91
2023/02/20 05:29:13;;;;;;;6.25;1.17;;;9.00;99.90;;;;;;6222205;23;20000;-89
2023/02/20 05:31:39;;;;;;;2.45;1.08;;;9.00;99.90;;;;;;6219448;23;20339;-90
2023/02/20 05:34:06;;;;;;;3.05;1.27;;;9.00;99.90;;;;;;6218268;23;20162;-90
2023/02/20 05:36:32;;;;;;;3.15;0.77;;;9.00;99.90;;;;;;6246116;23;20419;-89
2023/02/20 05:38:57;;;;;;;3.13;0.90;;;9.00;99.90;;;;;;6244835;23;20008;-90
2023/02/20 05:41:23;;;;;;;8.02;0.98;;;9.10;99.90;;;;;;6218681;23;20503;-90
2023/02/20 05:43:49;;;;;;;1.35;0.82;;;9.10;99.90;;;;;;6219258;23;19996;-92
2023/02/20 05:46:15;;;;;;;2.03;0.55;;;9.10;99.90;;;;;;6218508;23;20047;-87
2023/02/20 05:48:41;;;;;;;1.23;0.68;;;9.10;99.90;;;;;;6219802;23;20008;-91
2023/02/20 05:51:07;;;;;;;1.70;0.90;;;9.20;99.90;;;;;;6248838;23;20011;-90
2023/02/20 05:53:33;;;;;;;1.35;0.90;;;9.20;99.90;;;;;;6248095;23;20008;-90
2023/02/20 05:55:58;;;;;;;13.18;1.77;;;9.20;99.90;;;;;;6245256;23;20005;-89
2023/02/20 05:58:24;;;;;;;1.95;0.60;;;9.30;99.90;;;;;;6243777;23;20000;-89
2023/02/20 06:00:50;;;;;;;2.63;1.33;;;9.20;99.90;;;;;;6216949;23;20016;-90
2023/02/20 06:03:17;;;;;;;5.15;1.17;;;9.30;99.90;;;;;;6216489;23;20023;-90
2023/02/20 06:05:43;;;;;;;3.03;0.68;;;9.30;99.90;;;;;;6216970;23;20079;-90
2023/02/20 06:08:09;;;;;;;3.50;0.60;;;9.30;99.90;;;;;;6216754;23;20008;-90
2023/02/20 06:10:35;;;;;;;2.05;0.40;;;9.30;99.90;;;;;;6217474;23;20008;-90
2023/02/20 06:13:01;;;;;;;1.55;0.82;;;9.30;99.90;;;;;;6218135;23;20008;-90
2023/02/20 06:15:26;;;;;;;1.02;0.80;;;9.30;99.90;;;;;;6218105;23;20004;-89
2023/02/20 06:17:52;;;;;;;1.83;1.15;;;9.30;99.90;;;;;;6217747;23;20004;-91
2023/02/20 06:20:19;;;;;;;3.22;1.40;;;9.30;99.90;;;;;;6218693;23;20016;-90
2023/02/20 06:22:49;;;;;;;1.90;0.95;;;9.40;99.90;;;;;;6219851;23;20059;-91
2023/02/20 06:25:15;;;;;;;2.58;1.30;;;9.40;99.90;;;;;;6219388;23;20004;-90
2023/02/20 06:27:41;;;;;;;2.00;1.02;;;9.40;99.90;;;;;;6221592;23;20001;-92
2023/02/20 06:30:07;;;;;;;1.63;0.70;;;9.40;99.90;;;;;;6222253;23;20107;-91
2023/02/20 06:32:32;;;;;;;0.88;0.60;;;9.40;99.90;;;;;;6220495;23;20008;-91
2023/02/20 06:34:58;;;;;;;2.35;0.77;;;9.30;99.90;;;;;;6221383;23;20446;-91
2023/02/20 06:37:24;;;;;;;2.55;0.50;;;9.40;99.90;;;;;;6221011;23;20008;-90
2023/02/20 06:39:49;;;;;;;3.17;1.10;;;9.30;99.90;;;;;;6221151;23;20450;-90
2023/02/20 06:42:15;;;;;;;2.30;1.00;;;9.40;99.90;;;;;;6248058;23;20008;-90
2023/02/20 06:44:41;;;;;;;2.65;1.00;;;9.30;99.90;;;;;;6223349;23;20004;-92
2023/02/20 06:47:08;;;;;;;1.98;0.65;;;9.30;99.90;;;;;;6221747;23;20069;-90
2023/02/20 06:49:37;;;;;;;0.90;0.80;;;9.30;99.90;;;;;;6249837;23;19996;-89
2023/02/20 06:52:05;;;;;;;2.78;0.73;;;9.30;99.90;;;;;;6247285;23;20011;-91
2023/02/20 06:54:30;;;;;;;3.05;0.80;;;9.30;99.90;;;;;;6219583;23;20008;-90
2023/02/20 06:56:56;;;;;;;0.65;0.50;;;9.30;99.90;;;;;;6246770;23;20664;-92
2023/02/20 06:59:22;;;;;;;1.67;0.73;;;9.30;99.90;;;;;;6246746;23;20001;-88
2023/02/20 07:01:48;;;;;;;2.22;1.13;;;9.30;99.90;;;;;;6246231;23;20487;-90
2023/02/20 07:04:23;;;;;;;1.58;1.10;;;9.30;99.90;;;;;;6246689;23;20000;-90
2023/02/20 07:06:48;;;;;;;3.20;1.10;;;9.30;99.90;;;;;;6247005;23;20008;-90
2023/02/20 07:09:15;;;;;;;4.05;1.60;;;9.30;99.90;;;;;;6220685;23;20463;-90
2023/02/20 07:11:42;;;;;;;3.45;1.30;;;9.30;99.90;;;;;;6247436;23;20016;-91
2023/02/20 07:14:07;;;;;;;3.00;1.05;;;9.30;99.90;;;;;;6219778;23;20026;-91
2023/02/20 07:16:33;;;;;;;0.68;0.55;;;9.30;99.90;;;;;;6219519;23;20008;-90
2023/02/20 07:18:59;;;;;;;3.65;1.00;;;9.30;99.90;;;;;;6246397;23;20415;-92
2023/02/20 07:21:24;;;;;;;1.55;1.02;;;9.30;99.90;;;;;;6246370;23;20016;-90
2023/02/20 07:23:50;;;;;;;1.17;0.50;;;9.30;99.90;;;;;;6247022;23;20086;-90
2023/02/20 07:26:22;;;;;;;1.35;0.90;;;9.20;99.90;;;;;;6221259;23;20023;-91
2023/02/20 07:28:48;;;;;;;2.70;0.43;;;9.30;99.90;;;;;;6221550;23;20087;-91
2023/02/20 07:31:13;;;;;;;1.92;0.50;;;9.20;99.90;;;;;;6246810;23;20004;-91
2023/02/20 07:33:41;;;;;;;0.90;0.50;;;9.30;99.90;;;;;;6215726;23;19997;-92
2023/02/20 07:36:07;;;;;;;3.17;0.40;;;9.30;99.90;;;;;;6221278;23;20024;-91
2023/02/20 07:38:33;;;;;;;3.63;0.60;;;9.30;99.90;;;;;;6233983;23;20001;-91
2023/02/20 07:40:59;;;;;;;3.72;0.50;;;9.20;99.90;;;;;;6259638;23;20031;-90
2023/02/20 07:43:24;;;;;;;1.17;0.80;;;9.20;99.90;;;;;;6250397;23;20302;-90
2023/02/20 07:45:50;;;;;;;3.35;0.55;;;9.30;99.90;;;;;;6247345;23;20021;-93
2023/02/20 07:48:15;;;;;;;3.03;0.60;;;9.30;99.90;;;;;;6220874;23;20004;-92
2023/02/20 07:50:41;;;;;;;1.48;0.60;;;9.30;99.90;;;;;;6221310;23;20004;-90
2023/02/20 07:53:07;;;;;;;1.10;0.60;;;9.30;99.90;;;;;;6224609;23;20019;-91
2023/02/20 07:55:32;;;;;;;1.25;0.40;;;9.30;99.90;;;;;;6222201;23;20012;-92
2023/02/20 07:57:58;;;;;;;2.97;1.67;;;9.30;99.90;;;;;;6222613;23;20000;-91
2023/02/20 08:00:25;;;;;;;0.73;0.45;;;9.20;99.90;;;;;;6227521;23;20011;-91
2023/02/20 08:02:52;;;;;;;0.45;0.45;;;9.30;99.90;;;;;;6257926;23;20450;-91
2023/02/20 08:05:17;;;;;;;1.15;0.60;;;9.30;99.90;;;;;;6233951;23;20012;-88
2023/02/20 08:07:48;;;;;;;1.73;0.57;;;9.30;99.90;;;;;;6237700;23;19992;-88
2023/02/20 08:10:15;;;;;;;0.47;0.40;;;9.20;99.90;;;;;;6237206;23;20056;-90
2023/02/20 08:12:41;;;;;;;0.80;0.45;;;9.20;99.90;;;;;;6236746;23;20007;-89
2023/02/20 08:15:10;;;;;;;1.73;0.55;;;9.20;99.90;;;;;;6219356;23;20009;-90
2023/02/20 08:17:37;;;;;;;0.47;0.47;;;9.20;99.90;;;;;;6215067;23;20475;-91
2023/02/20 08:20:04;;;;;;;3.35;0.70;;;9.20;99.90;;;;;;6213590;23;20011;-90
2023/02/20 08:22:29;;;;;;;0.50;0.47;;;9.30;99.90;;;;;;6214110;23;20008;-90
2023/02/20 08:24:55;;;;;;;0.95;0.60;;;9.30;99.90;;;;;;6214472;23;20028;-90
2023/02/20 08:27:21;;;;;;;2.10;0.55;;;9.30;99.90;;;;;;6214310;23;20301;-91
2023/02/20 08:29:46;;;;;;;1.08;0.50;;;9.30;99.90;;;;;;6214697;23;20428;-91
2023/02/20 08:32:12;;;;;;;0.60;0.50;;;9.30;99.90;;;;;;6214248;23;20123;-90
2023/02/20 08:34:38;;;;;;;2.97;0.95;;;9.30;99.90;;;;;;6214957;23;20032;-91
2023/02/20 08:37:03;;;;;;;3.47;0.77;;;9.30;99.90;;;;;;6215177;23;20005;-91
2023/02/20 08:39:29;;;;;;;2.33;0.90;;;9.40;99.90;;;;;;6215325;23;20059;-91
2023/02/20 08:41:54;;;;;;;1.13;1.02;;;9.40;99.90;;;;;;6214963;23;20017;-91
2023/02/20 08:44:20;;;;;;;3.03;0.88;;;9.40;99.90;;;;;;6216348;23;19996;-92
2023/02/20 08:46:47;;;;;;;3.58;0.88;;;9.40;99.90;;;;;;6216211;23;20007;-91
2023/02/20 08:49:13;;;;;;;2.47;1.00;;;9.40;99.90;;;;;;6214900;23;20028;-92
2023/02/20 08:51:38;;;;;;;1.95;0.77;;;9.40;99.90;;;;;;6214982;23;20016;-92
2023/02/20 08:54:04;;;;;;;2.85;0.82;;;9.40;99.90;;;;;;6214656;23;20008;-91
2023/02/20 08:56:30;;;;;;;3.50;0.80;;;9.40;99.90;;;;;;6213798;23;20062;-90
2023/02/20 08:58:55;;;;;;;1.00;0.68;;;9.50;99.90;;;;;;6213978;23;20012;-93
2023/02/20 09:01:21;;;;;;;5.10;0.90;;;9.50;99.90;;;;;;6213432;23;20401;-92
2023/02/20 09:03:48;;;;;;;2.35;0.98;;;9.50;99.90;;;;;;6213040;23;20016;-91
2023/02/20 09:06:13;;;;;;;2.75;0.90;;;9.60;99.90;;;;;;6214352;23;20068;-92
2023/02/20 09:08:39;;;;;;;0.85;0.70;;;9.50;99.90;;;;;;6214188;23;20432;-90
2023/02/20 09:11:06;;;;;;;0.93;0.55;;;9.60;99.90;;;;;;6236912;23;20023;-90
2023/02/20 09:13:32;;;;;;;2.70;0.90;;;9.60;99.90;;;;;;6250992;23;20000;-92
2023/02/20 09:15:58;;;;;;;1.15;0.77;;;9.60;99.90;;;;;;6220373;23;20463;-90
2023/02/20 09:18:23;;;;;;;0.82;0.73;;;9.60;99.90;;;;;;6219947;23;20008;-90
2023/02/20 09:20:49;;;;;;;6.43;1.50;;;9.60;99.90;;;;;;6219236;23;20016;-89
2023/02/20 09:23:16;;;;;;;1.42;1.00;;;9.60;99.90;;;;;;6219423;23;20087;-89
2023/02/20 09:25:42;;;;;;;4.15;1.30;;;9.60;99.90;;;;;;6245948;23;20083;-91
2023/02/20 09:28:08;;;;;;;2.13;0.90;;;9.60;99.90;;;;;;6219165;23;20035;-90
2023/02/20 09:30:33;;;;;;;2.55;1.10;;;9.60;99.90;;;;;;6246660;23;20015;-91
2023/02/20 09:32:59;;;;;;;0.90;0.80;;;9.60;99.90;;;;;;6245766;23;20007;-89
2023/02/20 09:35:30;;;;;;;1.15;0.90;;;9.60;99.90;;;;;;6218117;23;20008;-91
2023/02/20 09:37:55;;;;;;;3.38;1.20;;;9.60;99.90;;;;;;6218505;23;20012;-92
2023/02/20 09:40:27;;;;;;;3.25;1.10;;;9.50;99.90;;;;;;6218634;23;20004;-90
2023/02/20 09:43:16;;;;;;;1.48;1.27;;;9.50;99.90;;;;;;6218465;23;20004;-91
2023/02/20 09:46:08;;;;;;;2.08;1.33;;;9.50;99.90;;;;;;6246096;23;20075;-91
2023/02/20 09:48:37;;;;;;;2.38;1.25;;;9.50;99.90;;;;;;6220383;23;20012;-92
2023/02/20 09:51:09;;;;;;;1.52;1.42;;;9.50;99.90;;;;;;6222540;23;20063;-92
2023/02/20 09:54:14;;;;;;;3.60;1.58;;;9.50;99.90;;;;;;6220111;23;20009;-91
2023/02/20 09:56:52;;;;;;;2.22;1.90;;;9.50;99.90;;;;;;6225602;23;20043;-93
2023/02/20 09:59:26;;;;;;;3.67;2.08;;;9.50;99.90;;;;;;6245130;23;20011;-91
2023/02/20 10:01:51;;;;;;;2.13;1.73;;;9.50;99.90;;;;;;6246435;23;20079;-91
2023/02/20 10:04:22;;;;;;;3.47;2.45;;;9.50;99.90;;;;;;6220649;23;20031;-92
2023/02/20 10:06:50;;;;;;;;;;;9.50;99.90;;;;;;6221040;23;20004;-90
2023/02/20 10:09:16;;;;;;;3.53;3.10;;;9.50;99.90;;;;;;6220615;23;19907;-91
2023/02/20 10:12:03;;;;;;;3.83;2.38;;;9.50;99.90;;;;;;6220552;23;20024;-91
2023/02/20 10:14:37;;;;;;;4.53;2.80;;;9.50;99.90;;;;;;6247741;23;19996;-94
2023/02/20 10:17:50;;;;;;;4.95;2.42;;;9.50;99.90;;;;;;6220520;23;20453;-93
2023/02/20 10:20:22;;;;;;;3.08;2.28;;;9.50;99.90;;;;;;6124520;23;20017;-95
2023/02/20 10:22:55;;;;;;;5.25;2.60;;;9.50;99.90;;;;;;6100019;23;20093;-92
2023/02/20 10:25:36;;;;;;;2.83;1.70;;;9.50;99.90;;;;;;6124832;23;20045;-91
2023/02/20 10:28:15;;;;;;;3.42;1.52;;;9.50;99.90;;;;;;6100329;23;20022;-93
2023/02/20 10:30:45;;;;;;;2.92;1.70;;;9.50;99.90;;;;;;6100072;23;20092;-91
2023/02/20 10:33:14;;;;;;;;;;;9.50;99.90;;;;;;6125158;23;20085;-91
2023/02/20 10:35:55;;;;;;;3.67;1.88;;;9.50;99.90;;;;;;6099631;23;19901;-93
2023/02/20 10:38:26;;;;;;;4.40;1.90;;;9.50;99.90;;;;;;6124337;23;20009;-93
2023/02/20 10:41:06;;;;;;;3.33;1.83;;;9.50;99.90;;;;;;6100798;23;20014;-92
2023/02/20 10:43:52;;;;;;;;;;;9.50;99.90;;;;;;6101431;23;20041;-94
2023/02/20 10:46:51;;;;;;;2.92;1.50;;;9.50;99.90;;;;;;6099965;23;19913;-93
2023/02/20 10:49:34;;;;;;;3.45;2.00;;;9.60;99.90;;;;;;6099487;23;20006;-93
2023/02/20 10:52:02;;;;;;;1.83;1.40;;;9.70;99.90;;;;;;6099413;23;20069;-91
2023/02/20 10:54:36;;;;;;;5.30;1.90;;;9.60;99.90;;;;;;6124298;23;20093;-93
2023/02/20 10:57:25;;;;;;;4.97;1.63;;;9.60;99.90;;;;;;6217455;23;20004;-93
2023/02/20 10:59:58;;;;;;;2.75;1.38;;;9.70;99.90;;;;;;6245914;23;20134;-93
2023/02/20 11:02:30;;;;;;;3.80;2.10;;;9.70;99.90;;;;;;6219171;23;20083;-90
2023/02/20 11:05:12;;;;;;;4.55;1.95;;;9.70;99.90;;;;;;6219704;23;20046;-93
2023/02/20 11:07:38;;;;;;;6.82;2.60;;;9.70;99.90;;;;;;6248336;23;20541;-92
2023/02/20 11:10:04;;;;;;;7.47;2.60;;;9.70;99.90;;;;;;6214102;23;20017;-93
2023/02/20 11:12:37;;;;;;;4.72;2.22;;;9.70;99.90;;;;;;6213452;23;20222;-93
2023/02/20 11:15:10;;;;;;;3.50;1.92;;;9.80;99.90;;;;;;6214729;23;20005;-95
2023/02/20 11:17:38;;;;;;;3.08;2.10;;;9.80;99.90;;;;;;6215548;23;20432;-94
2023/02/20 11:20:06;;;;;;;2.97;1.77;;;9.80;99.90;;;;;;6214302;23;20001;-92
2023/02/20 11:22:48;;;;;;;5.53;2.15;;;9.80;99.90;;;;;;6215064;23;20005;-92
2023/02/20 11:25:27;;;;;;;3.70;1.55;;;9.80;99.90;;;;;;6215949;23;20472;-93
2023/02/20 11:28:15;;;;;;;3.70;1.40;;;9.90;99.90;;;;;;6214067;23;20008;-94
2023/02/20 11:30:43;;;;;;;4.70;1.60;;;9.90;99.90;;;;;;6213526;23;20022;-92
2023/02/20 11:33:21;;;;;;;2.17;1.10;;;9.90;99.90;;;;;;6213173;23;20047;-94
2023/02/20 11:35:55;;;;;;;0.70;0.68;;;9.90;99.90;;;;;;6214319;23;20059;-92
2023/02/20 11:38:20;;;;;;;3.20;1.08;;;9.90;99.90;;;;;;6214233;23;20001;-93
2023/02/20 11:41:06;;;;;;;3.15;1.13;;;9.90;99.90;;;;;;6214112;23;20134;-92
2023/02/20 11:43:33;;;;;;;1.13;1.02;;;10.00;99.90;;;;;;6193218;23;20042;-93
2023/02/20 11:46:20;;;;;;;3.55;1.20;;;10.00;99.90;;;;;;6218279;23;20118;-92
2023/02/20 11:49:22;;;;;;;3.70;1.30;;;10.00;99.90;;;;;;6215402;23;20516;-92
2023/02/20 11:51:49;;;;;;;1.42;1.10;;;10.00;99.90;;;;;;6214914;23;20213;-92
2023/02/20 11:54:21;;;;;;;2.95;1.20;;;10.00;99.90;;;;;;6214212;23;20012;-91
2023/02/20 11:57:12;;;;;;;2.00;1.25;;;10.00;99.90;;;;;;6214190;23;20500;-91
2023/02/20 11:59:38;;;;;;;3.75;1.80;;;10.10;99.90;;;;;;6214052;23;20013;-91
2023/02/20 12:02:16;;;;;;;2.55;1.48;;;10.10;99.90;;;;;;6213616;23;20016;-93
2023/02/20 12:04:45;;;;;;;3.25;1.55;;;10.10;99.90;;;;;;6213947;23;19993;-93
2023/02/20 12:07:29;;;;;;;2.22;1.30;;;10.20;99.90;;;;;;6214202;23;20011;-92
2023/02/20 12:10:13;;;;;;;2.65;1.80;;;10.20;99.90;;;;;;6221206;23;20016;-93
2023/02/20 12:12:39;;;;;;;1.85;1.55;;;10.20;99.90;;;;;;6219110;23;20082;-91
2023/02/20 12:15:13;;;;;;;1.80;1.30;;;10.20;99.90;;;;;;6246657;23;20412;-93
2023/02/20 12:18:18;;;;;;;2.45;1.00;;;10.30;99.90;;;;;;6221180;23;20079;-93
2023/02/20 12:21:03;;;;;;;4.25;1.42;;;10.30;99.90;;;;;;6177130;23;20012;-92
2023/02/20 12:23:45;;;;;;;1.88;0.90;;;10.30;99.90;;;;;;6246697;23;20324;-92
2023/02/20 12:26:20;;;;;;;2.72;1.00;;;10.40;99.90;;;;;;6231933;23;19996;-90
2023/02/20 12:29:11;;;;;;;2.75;0.80;;;10.40;99.90;;;;;;6241070;23;20004;-90
2023/02/20 12:31:42;;;;;;;2.45;1.35;;;10.40;99.90;;;;;;6228537;23;20074;-91
2023/02/20 12:34:29;;;;;;;2.97;1.00;;;10.40;99.90;;;;;;6222718;23;20011;-92
2023/02/20 12:37:21;;;;;;;3.15;0.95;;;10.50;99.90;;;;;;6225428;23;20015;-92
2023/02/20 12:40:02;;;;;;;1.42;0.90;;;10.50;99.90;;;;;;6228913;23;20031;-92
2023/02/20 12:42:47;;;;;;;1.67;1.08;;;10.50;99.90;;;;;;6219792;23;20042;-90
2023/02/20 12:45:17;;;;;;;4.57;1.30;;;10.50;99.90;;;;;;6247087;23;19996;-89
2023/02/20 12:47:44;;;;;;;;;;;10.60;99.90;;;;;;6222092;23;20062;-90
2023/02/20 12:50:12;;;;;;;2.08;1.10;;;10.50;99.90;;;;;;6221770;23;19907;-94
2023/02/20 12:52:53;;;;;;;2.45;1.10;;;10.60;99.90;;;;;;6227299;23;20000;-92
2023/02/20 12:55:43;;;;;;;3.60;0.95;;;10.60;99.90;;;;;;6230360;23;20485;-90
2023/02/20 12:58:15;;;;;;;2.50;1.05;;;10.60;99.90;;;;;;6213128;23;20001;-88
2023/02/20 13:00:46;;;;;;;1.40;0.98;;;10.60;99.90;;;;;;6271398;22;20012;-89
2023/02/20 13:03:15;;;;;;;1.33;0.75;;;10.60;99.90;;;;;;6245074;23;20020;-89
2023/02/20 13:05:44;;;;;;;2.60;0.98;;;10.70;99.90;;;;;;6234206;23;20000;-90
2023/02/20 13:08:29;;;;;;;2.00;1.00;;;10.70;99.90;;;;;;6219705;23;20004;-90
2023/02/20 13:11:17;;;;;;;2.60;1.30;;;10.70;99.90;;;;;;6219926;23;20470;-90
2023/02/20 13:13:55;;;;;;;1.98;1.10;;;10.70;99.90;;;;;;6219280;23;20155;-94
2023/02/20 13:16:38;;;;;;;3.88;0.77;;;10.70;99.90;;;;;;6245984;23;20024;-92
2023/02/20 13:19:08;;;;;;;4.53;1.02;;;10.70;99.90;;;;;;6219666;23;20004;-92
2023/02/20 13:21:34;;;;;;;2.72;0.95;;;10.80;99.90;;;;;;6245889;23;20004;-91
2023/02/20 13:24:18;;;;;;;4.30;1.10;;;10.80;99.90;;;;;;6217566;23;20131;-91
2023/02/20 13:26:51;;;;;;;2.58;1.13;;;10.80;99.90;;;;;;6245543;23;20436;-92
2023/02/20 13:29:16;;;;;;;3.50;1.00;;;10.80;99.90;;;;;;6218085;23;20000;-92
2023/02/20 13:31:51;;;;;;;2.78;1.15;;;10.90;99.90;;;;;;6244159;23;20011;-92